Time;durP1;ratioP1;P1;durP2;ratioP2;P2;SDS_P1;SDS_P2;PMS_P1;PMS_P2;Temp;Humidity;BMP_temperature;BMP_pressure;BME280_temperature;BME280_humidity;BME280_pressure;Samples;Min_cycle;Max_cycle;Signal;HPM_P1;HPM_P2
2023/09/10 00:01:56;;;;;;;7.03;5.22;;;17.80;99.90;;;;;;5105173;28;20027;-81
2023/09/10 00:04:22;;;;;;;9.32;5.07;;;17.80;99.90;;;;;;5103782;28;20110;-82
2023/09/10 00:06:47;;;;;;;7.90;5.60;;;17.80;99.90;;;;;;5105295;28;20028;-82
2023/09/10 00:09:13;;;;;;;10.30;4.88;;;17.80;99.90;;;;;;5106387;28;20030;-82
2023/09/10 00:11:40;;;;;;;12.27;5.00;;;17.70;99.90;;;;;;5107027;28;20036;-85
2023/09/10 00:14:05;;;;;;;7.70;5.68;;;17.70;99.90;;;;;;5104807;28;20104;-82
2023/09/10 00:16:31;;;;;;;6.78;5.00;;;17.80;99.90;;;;;;5103203;28;20077;-82
2023/09/10 00:18:57;;;;;;;10.70;5.63;;;17.70;99.90;;;;;;5102703;28;20032;-82
2023/09/10 00:21:22;;;;;;;11.23;5.18;;;17.70;99.90;;;;;;5104075;28;20407;-82
2023/09/10 00:23:48;;;;;;;9.48;5.55;;;17.70;99.90;;;;;;5105822;28;20157;-82
2023/09/10 00:26:13;;;;;;;7.53;5.25;;;17.70;99.90;;;;;;5107176;28;20500;-82
2023/09/10 00:28:42;;;;;;;6.53;5.22;;;17.70;99.90;;;;;;5103366;28;20034;-84
2023/09/10 00:31:07;;;;;;;9.55;5.40;;;17.70;99.90;;;;;;5106936;28;20038;-84
2023/09/10 00:33:33;;;;;;;7.05;5.50;;;17.60;99.90;;;;;;5106811;28;20032;-82
2023/09/10 00:35:59;;;;;;;11.90;5.13;;;17.60;99.90;;;;;;5103401;28;20080;-82
2023/09/10 00:38:25;;;;;;;7.22;4.80;;;17.60;99.90;;;;;;5105808;28;20315;-83
2023/09/10 00:40:51;;;;;;;13.50;5.78;;;17.60;99.90;;;;;;5102957;28;20068;-82
2023/09/10 00:43:16;;;;;;;8.25;4.88;;;17.60;99.90;;;;;;5102168;28;20050;-82
2023/09/10 00:45:42;;;;;;;9.48;5.68;;;17.60;99.90;;;;;;5101640;28;20418;-82
2023/09/10 00:48:07;;;;;;;10.35;5.63;;;17.60;99.90;;;;;;5103595;28;20028;-83
2023/09/10 00:50:33;;;;;;;8.70;5.25;;;17.60;99.90;;;;;;5103977;28;20039;-83
2023/09/10 00:52:59;;;;;;;7.40;5.05;;;17.60;99.90;;;;;;5103612;28;20030;-83
2023/09/10 00:55:29;;;;;;;6.93;4.68;;;17.60;99.90;;;;;;5097746;28;20181;-82
2023/09/10 00:57:55;;;;;;;10.38;5.25;;;17.50;99.90;;;;;;5101628;28;20581;-82
2023/09/10 01:00:21;;;;;;;9.68;5.13;;;17.60;99.90;;;;;;5105623;28;20047;-81
2023/09/10 01:02:49;;;;;;;7.88;5.43;;;17.60;99.90;;;;;;5102945;28;20019;-82
2023/09/10 01:05:16;;;;;;;9.77;6.93;;;17.60;99.90;;;;;;5095276;27;20032;-81
2023/09/10 01:07:41;;;;;;;12.60;7.20;;;17.60;99.90;;;;;;5101994;28;20056;-82
2023/09/10 01:10:10;;;;;;;12.93;8.85;;;17.60;99.90;;;;;;5103141;28;20032;-81
2023/09/10 01:13:15;;;;;;;12.77;8.77;;;17.60;99.90;;;;;;5104735;28;20034;-82
2023/09/10 01:15:52;;;;;;;19.80;10.95;;;17.60;99.90;;;;;;5098320;28;20096;-82
2023/09/10 01:18:26;;;;;;;21.80;11.88;;;17.60;99.90;;;;;;5099016;28;20115;-82
2023/09/10 01:21:02;;;;;;;16.58;12.05;;;17.60;99.90;;;;;;5100299;28;20181;-82
2023/09/10 01:24:02;;;;;;;18.08;11.18;;;17.60;99.90;;;;;;5102287;28;20127;-82
2023/09/10 01:26:28;;;;;;;20.23;11.80;;;17.50;99.90;;;;;;5102319;28;20035;-82
2023/09/10 01:28:53;;;;;;;12.90;9.63;;;17.50;99.90;;;;;;5102999;28;20023;-82
2023/09/10 01:31:19;;;;;;;16.33;8.35;;;17.40;99.90;;;;;;5099118;28;20413;-82
2023/09/10 01:33:57;;;;;;;11.88;8.68;;;17.40;99.90;;;;;;5098417;28;20039;-82
2023/09/10 01:36:42;;;;;;;10.75;6.47;;;17.40;99.90;;;;;;5101791;28;20016;-82
2023/09/10 01:39:15;;;;;;;9.70;6.63;;;17.40;99.90;;;;;;5100093;28;20049;-82
2023/09/10 01:41:48;;;;;;;8.90;6.13;;;17.40;99.90;;;;;;5100043;27;20111;-82
2023/09/10 01:44:15;;;;;;;7.93;5.65;;;17.40;99.90;;;;;;5101487;28;20019;-82
2023/09/10 01:46:45;;;;;;;7.97;5.82;;;17.30;99.90;;;;;;5102655;28;20502;-84
2023/09/10 01:49:11;;;;;;;8.40;5.53;;;17.30;99.90;;;;;;5099495;28;20059;-83
2023/09/10 01:51:37;;;;;;;10.10;5.35;;;17.30;99.90;;;;;;5102856;27;20070;-81
2023/09/10 01:54:03;;;;;;;6.65;5.25;;;17.30;99.90;;;;;;5104357;28;20493;-81
2023/09/10 01:56:28;;;;;;;12.10;5.43;;;17.30;99.90;;;;;;5103486;28;20024;-81
2023/09/10 01:58:54;;;;;;;6.93;4.82;;;17.20;99.90;;;;;;5101452;28;20024;-83
2023/09/10 02:01:19;;;;;;;8.63;5.30;;;17.20;99.90;;;;;;5101799;28;20059;-82
2023/09/10 02:03:45;;;;;;;9.80;5.53;;;17.20;99.90;;;;;;5100190;28;20068;-82
2023/09/10 02:06:12;;;;;;;6.53;5.25;;;17.30;99.90;;;;;;5102941;28;20024;-84
2023/09/10 02:08:37;;;;;;;11.43;5.50;;;17.20;99.90;;;;;;5104008;28;20032;-81
2023/09/10 02:11:06;;;;;;;8.70;5.72;;;17.20;99.90;;;;;;5093975;28;20038;-82
2023/09/10 02:13:31;;;;;;;8.10;5.72;;;17.20;99.90;;;;;;5096414;28;20047;-84
2023/09/10 02:16:01;;;;;;;9.35;5.22;;;17.20;99.90;;;;;;5102753;28;20057;-82
2023/09/10 02:18:29;;;;;;;7.10;5.75;;;17.20;99.90;;;;;;5103737;28;20385;-82
2023/09/10 02:20:55;;;;;;;7.10;5.20;;;17.20;99.90;;;;;;5103745;28;20024;-82
2023/09/10 02:23:24;;;;;;;12.07;5.75;;;17.30;99.90;;;;;;5101569;28;20057;-82
2023/09/10 02:25:49;;;;;;;7.70;6.22;;;17.20;99.90;;;;;;5097972;28;20303;-82
2023/09/10 02:28:23;;;;;;;7.38;5.80;;;17.20;99.90;;;;;;5103683;28;20019;-82
2023/09/10 02:30:51;;;;;;;6.70;5.82;;;17.20;99.90;;;;;;5096640;28;20024;-81
2023/09/10 02:33:21;;;;;;;8.23;6.20;;;17.20;99.90;;;;;;5108444;28;20039;-82
2023/09/10 02:35:49;;;;;;;11.57;6.20;;;17.20;99.90;;;;;;5099322;28;20442;-82
2023/09/10 02:38:15;;;;;;;8.50;5.75;;;17.20;99.90;;;;;;5099985;28;20027;-82
2023/09/10 02:40:42;;;;;;;7.97;5.47;;;17.20;99.90;;;;;;5095952;28;20031;-82
2023/09/10 02:43:08;;;;;;;7.55;5.88;;;17.20;99.90;;;;;;5091849;28;20172;-83
2023/09/10 02:45:33;;;;;;;7.30;5.30;;;17.20;99.90;;;;;;5101666;28;20091;-82
2023/09/10 02:47:59;;;;;;;8.68;6.20;;;17.20;99.90;;;;;;5095616;28;20043;-82
2023/09/10 02:50:25;;;;;;;6.50;5.68;;;17.20;99.90;;;;;;5099942;28;20394;-83
2023/09/10 02:53:00;;;;;;;14.13;6.80;;;17.20;99.90;;;;;;5099452;28;20108;-82
2023/09/10 02:55:25;;;;;;;8.57;6.38;;;17.20;99.90;;;;;;5092736;28;20307;-81
2023/09/10 02:57:51;;;;;;;10.65;6.50;;;17.20;99.90;;;;;;5103892;28;20488;-84
2023/09/10 03:02:58;;;;;;;;;;;17.20;99.90;;;;;;5063307;28;20395;-80
2023/09/10 03:05:24;;;;;;;9.23;6.55;;;17.20;99.90;;;;;;5066079;28;19908;-81
2023/09/10 03:07:54;;;;;;;7.53;5.47;;;17.20;99.90;;;;;;5068596;28;20425;-81
2023/09/10 03:10:21;;;;;;;10.20;6.22;;;17.20;99.90;;;;;;5061423;28;20042;-81
2023/09/10 03:12:49;;;;;;;8.80;6.78;;;17.20;99.90;;;;;;5059474;28;20024;-81
2023/09/10 03:15:18;;;;;;;9.30;6.65;;;17.20;99.90;;;;;;5053106;28;20040;-83
2023/09/10 03:17:43;;;;;;;10.15;5.80;;;17.20;99.90;;;;;;5059341;28;20029;-81
2023/09/10 03:20:12;;;;;;;7.78;5.78;;;17.20;99.90;;;;;;5066028;28;20027;-83
2023/09/10 03:22:38;;;;;;;7.78;5.47;;;17.20;99.90;;;;;;5063070;28;20480;-82
2023/09/10 03:25:06;;;;;;;11.50;6.15;;;17.20;99.90;;;;;;5054481;28;20068;-83
2023/09/10 03:27:32;;;;;;;6.72;5.68;;;17.20;99.90;;;;;;5048828;28;20028;-81
2023/09/10 03:30:05;;;;;;;8.15;5.45;;;17.20;99.90;;;;;;5065709;28;20062;-82
2023/09/10 03:32:31;;;;;;;7.00;5.47;;;17.20;99.90;;;;;;5060024;28;20074;-82
2023/09/10 03:34:56;;;;;;;9.05;5.70;;;17.20;99.90;;;;;;5063661;28;20033;-82
2023/09/10 03:37:25;;;;;;;8.30;6.28;;;17.20;99.90;;;;;;5044102;28;20085;-81
2023/09/10 03:39:54;;;;;;;7.78;6.43;;;17.20;99.90;;;;;;5066769;28;20114;-83
2023/09/10 03:42:19;;;;;;;7.47;5.60;;;17.10;99.90;;;;;;5055603;28;20119;-82
2023/09/10 03:44:47;;;;;;;8.98;7.40;;;17.10;99.90;;;;;;5051621;28;20127;-83
2023/09/10 03:47:12;;;;;;;7.55;6.28;;;17.10;99.90;;;;;;5057913;28;20025;-83
2023/09/10 03:49:46;;;;;;;7.40;6.20;;;17.10;99.90;;;;;;5059053;28;20071;-83
2023/09/10 03:52:21;;;;;;;8.13;6.07;;;17.10;99.90;;;;;;5061342;28;20029;-83
2023/09/10 03:54:47;;;;;;;8.32;6.28;;;17.10;99.90;;;;;;5059081;28;20041;-82
2023/09/10 03:57:16;;;;;;;12.40;6.95;;;17.00;99.90;;;;;;5060643;28;20443;-82
2023/09/10 03:59:41;;;;;;;7.90;6.40;;;17.00;99.90;;;;;;5057070;28;20029;-82
2023/09/10 04:02:16;;;;;;;9.55;7.05;;;17.00;99.90;;;;;;5060266;28;20088;-82
2023/09/10 04:04:42;;;;;;;8.32;6.25;;;17.00;99.90;;;;;;5064213;28;20048;-82
2023/09/10 04:07:07;;;;;;;12.15;7.18;;;17.00;99.90;;;;;;5054402;28;20489;-82
2023/09/10 04:09:33;;;;;;;10.52;7.57;;;17.00;99.90;;;;;;5057093;28;20036;-82
2023/09/10 04:11:59;;;;;;;8.02;6.63;;;17.00;99.90;;;;;;5063177;28;20321;-82
2023/09/10 04:14:28;;;;;;;13.00;6.65;;;17.00;99.90;;;;;;5045608;28;20099;-82
2023/09/10 04:16:54;;;;;;;9.15;7.00;;;16.90;99.90;;;;;;5046702;28;20027;-82
2023/09/10 04:19:19;;;;;;;10.75;6.82;;;16.90;99.90;;;;;;5047755;28;20386;-82
2023/09/10 04:21:45;;;;;;;9.68;6.70;;;16.90;99.90;;;;;;5047987;28;20056;-81
2023/09/10 04:24:12;;;;;;;10.50;6.78;;;16.90;99.90;;;;;;5051555;28;20024;-82
2023/09/10 04:26:37;;;;;;;8.10;6.07;;;16.90;99.90;;;;;;5046328;28;20124;-83
2023/09/10 04:29:03;;;;;;;8.93;6.40;;;16.90;99.90;;;;;;5047348;28;20116;-82
2023/09/10 04:31:35;;;;;;;8.93;6.05;;;16.90;99.90;;;;;;5055157;28;20032;-82
2023/09/10 04:34:02;;;;;;;8.88;5.97;;;16.90;99.90;;;;;;5041188;28;20032;-82
2023/09/10 04:36:28;;;;;;;6.38;5.70;;;17.00;99.90;;;;;;5054931;28;20044;-82
2023/09/10 04:38:57;;;;;;;9.02;6.30;;;17.00;99.90;;;;;;5038862;28;20482;-83
2023/09/10 04:41:22;;;;;;;11.32;6.15;;;17.00;99.90;;;;;;5042609;28;20044;-85
2023/09/10 04:43:48;;;;;;;7.40;6.60;;;17.00;99.90;;;;;;5048648;28;20029;-83
2023/09/10 04:46:14;;;;;;;9.50;6.50;;;16.90;99.90;;;;;;5047043;28;20359;-82
2023/09/10 04:48:42;;;;;;;7.75;6.07;;;16.90;99.90;;;;;;5037823;28;20479;-84
2023/09/10 04:51:07;;;;;;;10.82;6.47;;;17.00;99.90;;;;;;5042607;28;20845;-83
2023/09/10 04:53:35;;;;;;;10.90;6.90;;;16.80;99.90;;;;;;5045316;28;20033;-82
2023/09/10 04:56:01;;;;;;;8.65;6.60;;;16.90;99.90;;;;;;5044012;28;20116;-82
2023/09/10 04:58:26;;;;;;;8.02;6.53;;;16.90;99.90;;;;;;5050892;28;20456;-82
2023/09/10 05:00:55;;;;;;;7.53;5.82;;;16.90;99.90;;;;;;5051489;28;20041;-82
2023/09/10 05:03:21;;;;;;;8.75;6.22;;;16.90;99.90;;;;;;5046980;28;21478;-81
2023/09/10 05:05:59;;;;;;;8.43;6.22;;;16.90;99.90;;;;;;5045612;28;20082;-82
2023/09/10 05:08:26;;;;;;;7.25;5.43;;;16.90;99.90;;;;;;5041878;28;20025;-82
2023/09/10 05:10:55;;;;;;;6.35;5.63;;;16.90;99.90;;;;;;5051646;28;20033;-82
2023/09/10 05:13:20;;;;;;;7.05;6.03;;;17.00;99.90;;;;;;5049988;28;20078;-82
2023/09/10 05:15:47;;;;;;;6.90;6.05;;;17.00;99.90;;;;;;5046271;28;20032;-83
2023/09/10 05:18:12;;;;;;;11.88;5.72;;;17.00;99.90;;;;;;5034940;28;20025;-83
2023/09/10 05:20:38;;;;;;;13.65;7.80;;;17.00;99.90;;;;;;5043376;28;20028;-83
2023/09/10 05:23:07;;;;;;;9.73;6.75;;;17.00;99.90;;;;;;5043854;28;20082;-82
2023/09/10 05:25:37;;;;;;;8.40;5.97;;;17.00;99.90;;;;;;5045093;28;20033;-82
2023/09/10 05:28:05;;;;;;;7.88;6.38;;;17.00;99.90;;;;;;5045129;28;20044;-82
2023/09/10 05:30:31;;;;;;;9.68;6.85;;;17.00;99.90;;;;;;5035449;28;20113;-82
2023/09/10 05:32:57;;;;;;;8.80;6.65;;;17.00;99.90;;;;;;5042105;28;20029;-82
2023/09/10 05:35:23;;;;;;;12.20;6.82;;;17.10;99.90;;;;;;5038579;28;20033;-83
2023/09/10 05:37:49;;;;;;;14.75;7.47;;;17.00;99.90;;;;;;5045037;28;20044;-82
2023/09/10 05:40:15;;;;;;;11.63;7.82;;;17.10;99.90;;;;;;5044909;28;20049;-82
2023/09/10 05:42:40;;;;;;;10.95;7.38;;;17.20;99.90;;;;;;5051621;28;20044;-84
2023/09/10 05:45:08;;;;;;;9.32;6.82;;;17.20;99.90;;;;;;5043100;28;20583;-84
2023/09/10 05:47:33;;;;;;;9.50;7.05;;;17.20;99.90;;;;;;5044848;28;20025;-82
2023/09/10 05:50:00;;;;;;;7.25;6.45;;;17.20;99.90;;;;;;5040454;28;20383;-82
2023/09/10 05:52:26;;;;;;;8.40;7.28;;;17.30;99.90;;;;;;5041027;28;20021;-83
2023/09/10 05:54:54;;;;;;;7.28;6.50;;;17.30;99.90;;;;;;5045201;28;20036;-82
2023/09/10 05:57:20;;;;;;;11.48;6.88;;;17.30;99.90;;;;;;5043489;28;20037;-83
2023/09/10 05:59:46;;;;;;;11.32;7.53;;;17.40;99.90;;;;;;5044113;28;20044;-82
2023/09/10 06:02:12;;;;;;;9.07;6.95;;;17.40;99.90;;;;;;5055514;28;20409;-82
2023/09/10 06:04:38;;;;;;;8.43;7.13;;;17.50;99.90;;;;;;5053056;28;20044;-83
2023/09/10 06:07:04;;;;;;;8.90;7.55;;;17.50;99.90;;;;;;5044560;28;20043;-84
2023/09/10 06:09:30;;;;;;;9.98;7.13;;;17.60;99.90;;;;;;5040243;28;20044;-82
2023/09/10 06:11:57;;;;;;;7.70;6.30;;;17.70;99.90;;;;;;5032622;28;20025;-83
2023/09/10 06:14:23;;;;;;;12.73;7.22;;;17.70;99.90;;;;;;5038155;28;20041;-83
2023/09/10 06:16:48;;;;;;;8.40;6.38;;;17.80;99.90;;;;;;5050574;28;20035;-82
2023/09/10 06:19:14;;;;;;;11.55;7.13;;;17.90;99.90;;;;;;5050913;28;20045;-82
2023/09/10 06:21:41;;;;;;;8.93;6.72;;;17.90;99.90;;;;;;5034496;28;20100;-84
2023/09/10 06:24:06;;;;;;;7.05;6.35;;;18.00;99.90;;;;;;5041728;28;20032;-82
2023/09/10 06:26:32;;;;;;;8.07;6.80;;;18.00;99.90;;;;;;5037430;28;20506;-82
2023/09/10 06:28:59;;;;;;;8.90;6.00;;;18.10;99.90;;;;;;5041604;28;20555;-82
2023/09/10 06:31:24;;;;;;;10.52;7.32;;;18.20;99.90;;;;;;5052048;28;20075;-83
2023/09/10 06:33:50;;;;;;;7.65;6.22;;;18.30;99.90;;;;;;5032769;28;20413;-82
2023/09/10 06:36:16;;;;;;;9.32;6.63;;;18.30;99.90;;;;;;5042206;28;20516;-83
2023/09/10 06:38:47;;;;;;;7.93;6.78;;;18.40;99.90;;;;;;5040612;28;20020;-83
2023/09/10 06:41:14;;;;;;;9.15;7.28;;;18.60;99.90;;;;;;5043133;28;20037;-83
2023/09/10 06:43:43;;;;;;;12.25;7.60;;;18.60;99.90;;;;;;5046049;28;20410;-85
2023/09/10 06:46:09;;;;;;;9.60;7.80;;;18.70;99.90;;;;;;5051718;28;20064;-83
2023/09/10 06:48:34;;;;;;;11.65;7.35;;;18.80;99.90;;;;;;5036407;28;20029;-83
2023/09/10 06:51:04;;;;;;;14.95;8.20;;;18.90;99.90;;;;;;5031681;28;20172;-83
2023/09/10 06:53:31;;;;;;;13.45;7.97;;;19.00;99.90;;;;;;5042279;28;20028;-84
2023/09/10 06:55:57;;;;;;;10.35;7.43;;;19.00;99.90;;;;;;5036785;28;20030;-82
2023/09/10 06:58:23;;;;;;;13.20;7.53;;;19.10;99.90;;;;;;5047186;28;20032;-84
2023/09/10 07:00:49;;;;;;;12.48;7.95;;;19.20;99.90;;;;;;5041513;28;20029;-83
2023/09/10 07:03:15;;;;;;;10.50;7.28;;;19.30;99.90;;;;;;5038659;28;20025;-83
2023/09/10 07:05:41;;;;;;;8.45;6.57;;;19.40;99.90;;;;;;5032548;28;20112;-84
2023/09/10 07:08:08;;;;;;;11.95;7.03;;;19.40;99.90;;;;;;5035058;28;20037;-82
2023/09/10 07:10:34;;;;;;;11.40;7.80;;;19.50;99.90;;;;;;5043434;28;20021;-83
2023/09/10 07:13:07;;;;;;;8.68;6.57;;;19.60;99.90;;;;;;5039653;28;20052;-82
2023/09/10 07:15:33;;;;;;;8.50;6.28;;;19.70;99.90;;;;;;5035712;28;20060;-83
2023/09/10 07:17:59;;;;;;;8.10;6.47;;;19.70;99.90;;;;;;5038503;28;20499;-83
2023/09/10 07:20:25;;;;;;;10.23;6.18;;;19.80;99.90;;;;;;5038042;28;20466;-83
2023/09/10 07:22:50;;;;;;;8.38;6.65;;;19.90;99.90;;;;;;5034212;28;20486;-82
2023/09/10 07:25:16;;;;;;;7.55;5.80;;;20.00;99.90;;;;;;5045115;28;20033;-84
2023/09/10 07:27:42;;;;;;;11.35;5.75;;;20.10;99.90;;;;;;5028330;28;21736;-83
2023/09/10 07:30:07;;;;;;;7.07;5.53;;;20.20;99.90;;;;;;5036827;28;20440;-84
2023/09/10 07:32:33;;;;;;;6.22;5.63;;;20.20;99.90;;;;;;5040485;28;20040;-83
2023/09/10 07:34:59;;;;;;;8.18;5.80;;;20.30;99.90;;;;;;5048810;28;20116;-82
2023/09/10 07:37:25;;;;;;;6.60;5.72;;;20.30;99.90;;;;;;5039298;28;20102;-83
2023/09/10 07:39:50;;;;;;;7.45;5.10;;;20.40;99.90;;;;;;5033454;28;20026;-83
2023/09/10 07:42:16;;;;;;;8.35;5.72;;;20.50;99.90;;;;;;5039501;28;20540;-83
2023/09/10 07:44:42;;;;;;;7.38;5.40;;;20.50;99.90;;;;;;5035469;28;20037;-85
2023/09/10 07:47:09;;;;;;;5.53;4.85;;;20.70;99.90;;;;;;5040375;28;20039;-83
2023/09/10 07:49:34;;;;;;;8.93;5.55;;;20.70;99.90;;;;;;5041916;28;20075;-82
2023/09/10 07:52:03;;;;;;;7.20;5.55;;;20.80;99.90;;;;;;5043939;28;20029;-83
2023/09/10 07:54:29;;;;;;;8.63;5.32;;;20.90;99.90;;;;;;5053743;28;20600;-83
2023/09/10 07:56:55;;;;;;;6.50;5.50;;;21.00;99.90;;;;;;5046114;28;20025;-83
2023/09/10 07:59:20;;;;;;;9.93;5.32;;;21.10;99.90;;;;;;5043778;28;20035;-84
2023/09/10 08:01:46;;;;;;;9.75;5.10;;;21.20;99.90;;;;;;5043402;28;20059;-83
2023/09/10 08:04:12;;;;;;;9.23;5.18;;;21.40;99.90;;;;;;5039332;28;20474;-83
2023/09/10 08:06:37;;;;;;;11.05;6.10;;;21.60;99.90;;;;;;5045419;28;20056;-83
2023/09/10 08:09:03;;;;;;;12.00;5.72;;;21.70;99.90;;;;;;5043435;28;20587;-83
2023/09/10 08:11:29;;;;;;;13.80;5.95;;;21.90;99.90;;;;;;5050712;28;20108;-83
2023/09/10 08:13:54;;;;;;;9.00;5.68;;;22.00;99.90;;;;;;5052056;28;20025;-83
2023/09/10 08:16:20;;;;;;;8.35;5.38;;;22.10;99.90;;;;;;5041334;28;20017;-83
2023/09/10 08:18:46;;;;;;;7.78;5.30;;;22.10;99.90;;;;;;5037487;28;20060;-83
2023/09/10 08:21:12;;;;;;;13.13;5.72;;;22.20;99.90;;;;;;5052423;28;20036;-86
2023/09/10 08:23:37;;;;;;;10.45;5.70;;;22.20;99.90;;;;;;5048738;28;20440;-84
2023/09/10 08:26:03;;;;;;;12.55;5.20;;;22.40;99.90;;;;;;5052645;28;20428;-84
2023/09/10 08:28:29;;;;;;;9.63;5.72;;;22.40;99.90;;;;;;5046240;28;20324;-85
2023/09/10 08:30:55;;;;;;;7.35;6.00;;;22.60;99.90;;;;;;5040937;28;20029;-84
2023/09/10 08:33:21;;;;;;;8.43;5.25;;;22.70;99.90;;;;;;5048069;28;20028;-85
2023/09/10 08:35:49;;;;;;;9.45;5.40;;;22.70;99.90;;;;;;5049939;28;20575;-83
2023/09/10 08:38:15;;;;;;;9.45;5.55;;;22.70;99.90;;;;;;5047867;28;20151;-84
2023/09/10 08:41:09;;;;;;;9.20;5.35;;;22.70;99.90;;;;;;5041511;28;20060;-83
2023/09/10 08:43:41;;;;;;;9.75;5.35;;;22.70;99.90;;;;;;5044863;28;20025;-83
2023/09/10 08:46:12;;;;;;;13.73;6.25;;;22.70;99.90;;;;;;5042326;28;20115;-84
2023/09/10 08:48:42;;;;;;;9.73;6.63;;;22.80;99.90;;;;;;5036459;28;20320;-85
2023/09/10 08:51:10;;;;;;;6.93;5.18;;;22.90;99.90;;;;;;5041277;28;20406;-83
2023/09/10 08:53:38;;;;;;;9.48;5.82;;;23.00;99.90;;;;;;5037702;28;20041;-85
2023/09/10 08:56:04;;;;;;;13.90;5.65;;;23.10;99.90;;;;;;5050043;28;20025;-83
2023/09/10 08:58:32;;;;;;;8.48;5.80;;;23.20;99.90;;;;;;5045875;28;20028;-84
2023/09/10 09:01:00;;;;;;;8.15;5.60;;;23.30;99.90;;;;;;5047373;28;20495;-84
2023/09/10 09:03:28;;;;;;;10.40;6.25;;;23.30;99.90;;;;;;5045252;28;20386;-85
2023/09/10 09:05:58;;;;;;;13.23;5.82;;;23.40;99.90;;;;;;5039385;28;20029;-84
2023/09/10 09:08:30;;;;;;;9.38;5.72;;;23.40;99.90;;;;;;5041531;28;20025;-85
2023/09/10 09:11:06;;;;;;;11.45;5.80;;;23.50;99.90;;;;;;5049697;28;20163;-85
2023/09/10 09:13:37;;;;;;;;;;;23.50;99.90;;;;;;5058949;28;20032;-84
2023/09/10 09:16:04;;;;;;;8.32;5.95;;;23.60;99.90;;;;;;5047411;28;19999;-85
2023/09/10 09:18:34;;;;;;;10.80;5.88;;;23.60;99.90;;;;;;5050917;28;20025;-85
2023/09/10 09:21:11;;;;;;;10.45;6.55;;;23.70;99.90;;;;;;5046143;28;20041;-84
2023/09/10 09:23:43;;;;;;;13.98;6.15;;;23.80;99.90;;;;;;5035313;28;20111;-85
2023/09/10 09:26:10;;;;;;;13.50;5.68;;;23.80;99.90;;;;;;5049156;28;20078;-85
2023/09/10 09:28:35;;;;;;;8.50;5.75;;;23.80;99.90;;;;;;5057089;28;20024;-84
2023/09/10 09:31:02;;;;;;;7.57;5.07;;;23.80;99.90;;;;;;5036608;28;20033;-85
2023/09/10 09:33:28;;;;;;;9.50;5.47;;;23.90;99.90;;;;;;5034819;28;20089;-83
2023/09/10 09:35:53;;;;;;;9.68;5.10;;;23.90;99.90;;;;;;5038922;28;20495;-84
2023/09/10 09:38:20;;;;;;;8.20;5.93;;;24.00;99.90;;;;;;5043895;28;20033;-84
2023/09/10 09:40:46;;;;;;;9.70;5.70;;;24.10;99.90;;;;;;5038261;28;20075;-84
2023/09/10 09:43:12;;;;;;;9.85;5.28;;;24.20;99.90;;;;;;5042036;28;20052;-84
2023/09/10 09:45:40;;;;;;;6.38;5.45;;;24.30;99.90;;;;;;5036397;28;20559;-86
2023/09/10 09:48:08;;;;;;;9.82;5.70;;;24.20;99.90;;;;;;5042568;28;20054;-85
2023/09/10 09:50:34;;;;;;;14.20;6.10;;;24.30;99.90;;;;;;5054361;28;20037;-83
2023/09/10 09:53:00;;;;;;;9.52;5.93;;;24.30;99.90;;;;;;5046951;28;20037;-84
2023/09/10 09:55:26;;;;;;;7.35;5.72;;;24.30;99.90;;;;;;5047550;28;20013;-84
2023/09/10 09:57:52;;;;;;;11.40;5.88;;;24.40;99.90;;;;;;5045511;28;20044;-83
2023/09/10 10:00:18;;;;;;;10.02;5.75;;;24.40;99.90;;;;;;5052451;28;20359;-83
2023/09/10 10:02:44;;;;;;;9.13;5.90;;;24.40;99.90;;;;;;5043253;28;20049;-84
2023/09/10 10:05:11;;;;;;;15.27;5.55;;;24.50;99.90;;;;;;5042874;28;20047;-84
2023/09/10 10:07:37;;;;;;;11.25;5.95;;;24.40;99.90;;;;;;5048378;28;20057;-83
2023/09/10 10:10:07;;;;;;;9.63;5.80;;;24.40;99.90;;;;;;5044157;28;20057;-86
2023/09/10 10:12:34;;;;;;;13.65;7.00;;;24.50;99.90;;;;;;5043833;28;20530;-84
2023/09/10 10:15:00;;;;;;;11.52;6.22;;;24.50;99.90;;;;;;5053332;28;20037;-84
2023/09/10 10:17:26;;;;;;;14.43;6.47;;;24.60;99.90;;;;;;5053345;28;20020;-85
2023/09/10 10:19:53;;;;;;;11.27;5.85;;;24.80;99.90;;;;;;5055224;28;20441;-83
2023/09/10 10:22:20;;;;;;;8.43;5.72;;;24.80;99.90;;;;;;5041172;28;20797;-85
2023/09/10 10:24:46;;;;;;;10.65;5.65;;;24.80;99.90;;;;;;5041145;28;20095;-83
2023/09/10 10:27:15;;;;;;;9.93;6.13;;;24.80;99.90;;;;;;5044023;28;20025;-85
2023/09/10 10:29:41;;;;;;;9.77;6.45;;;24.90;99.90;;;;;;5040932;28;20107;-85
2023/09/10 10:32:14;;;;;;;9.77;6.10;;;24.90;99.90;;;;;;5047128;28;20123;-84
2023/09/10 10:34:48;;;;;;;12.80;5.82;;;24.90;99.90;;;;;;5040108;28;20809;-85
2023/09/10 10:37:27;;;;;;;12.65;6.60;;;24.90;99.90;;;;;;5041816;28;20547;-84
2023/09/10 10:39:53;;;;;;;10.40;6.45;;;25.00;99.90;;;;;;5034225;28;20021;-84
2023/09/10 10:42:26;;;;;;;18.98;6.95;;;25.10;99.90;;;;;;5043396;28;20045;-87
2023/09/10 10:44:52;;;;;;;13.95;6.25;;;25.20;99.90;;;;;;5039466;28;20025;-85
2023/09/10 10:47:21;;;;;;;10.68;5.60;;;25.30;99.90;;;;;;5043460;28;20029;-85
2023/09/10 10:49:52;;;;;;;16.13;5.85;;;25.30;99.90;;;;;;5047098;28;20036;-87
2023/09/10 10:52:25;;;;;;;10.10;5.90;;;25.30;99.90;;;;;;5033650;28;20421;-84
2023/09/10 10:54:54;;;;;;;19.13;5.53;;;25.40;99.90;;;;;;5044607;28;20041;-87
2023/09/10 10:57:23;;;;;;;19.70;6.28;;;25.30;99.90;;;;;;5053379;28;20424;-85
2023/09/10 10:59:49;;;;;;;14.20;6.32;;;25.40;99.90;;;;;;5049551;28;20311;-85
2023/09/10 11:02:22;;;;;;;13.68;6.38;;;25.50;99.90;;;;;;5053092;28;20049;-85
2023/09/10 11:04:57;;;;;;;10.05;5.97;;;25.60;99.90;;;;;;5057926;28;20028;-85
2023/09/10 11:07:22;;;;;;;9.27;5.80;;;25.80;99.90;;;;;;5055234;28;20035;-85
2023/09/10 11:09:49;;;;;;;15.43;6.20;;;25.70;99.90;;;;;;5050185;28;20430;-86
2023/09/10 11:12:15;;;;;;;11.77;5.68;;;25.70;99.90;;;;;;5037955;28;20025;-86
2023/09/10 11:14:59;;;;;;;12.70;6.25;;;25.70;99.90;;;;;;5043103;28;20036;-84
2023/09/10 11:17:32;;;;;;;16.02;5.75;;;25.80;99.90;;;;;;5049501;28;20033;-85
2023/09/10 11:19:58;;;;;;;11.18;5.45;;;25.80;99.90;;;;;;5041910;28;20115;-86
2023/09/10 11:22:24;;;;;;;15.65;6.90;;;25.90;99.90;;;;;;5052991;28;20048;-86
2023/09/10 11:25:00;;;;;;;11.93;5.93;;;26.00;99.90;;;;;;5056712;28;20036;-84
2023/09/10 11:27:30;;;;;;;16.88;5.80;;;26.10;99.90;;;;;;5043319;28;20112;-87
2023/09/10 11:30:19;;;;;;;13.18;5.25;;;26.10;99.90;;;;;;5049803;28;20039;-85
2023/09/10 11:32:44;;;;;;;9.18;5.07;;;26.00;99.90;;;;;;5043669;28;20029;-82
2023/09/10 11:35:20;;;;;;;17.30;6.70;;;26.00;99.90;;;;;;5056635;28;20075;-83
2023/09/10 11:37:47;;;;;;;13.43;6.18;;;26.10;99.90;;;;;;5048032;28;20067;-83
2023/09/10 11:40:13;;;;;;;12.55;6.40;;;26.10;99.90;;;;;;5050437;28;20027;-82
2023/09/10 11:42:42;;;;;;;11.13;5.63;;;26.20;99.90;;;;;;5050572;28;20055;-84
2023/09/10 11:45:09;;;;;;;14.00;6.25;;;26.20;99.90;;;;;;5037998;28;20075;-83
2023/09/10 11:47:35;;;;;;;15.82;6.80;;;26.20;99.90;;;;;;5050234;28;20116;-82
2023/09/10 11:50:06;;;;;;;12.50;5.80;;;26.10;99.90;;;;;;5046069;28;20528;-84
2023/09/10 11:52:31;;;;;;;13.10;5.90;;;26.10;99.90;;;;;;5043986;28;20133;-83
2023/09/10 11:54:57;;;;;;;17.63;6.10;;;26.20;99.90;;;;;;5057849;28;20281;-84
2023/09/10 11:57:23;;;;;;;10.18;6.03;;;26.20;99.90;;;;;;5045902;28;20053;-85
2023/09/10 11:59:52;;;;;;;17.90;5.88;;;26.30;99.90;;;;;;5042246;28;20833;-83
2023/09/10 12:02:20;;;;;;;17.70;5.80;;;26.60;99.90;;;;;;5046110;28;20079;-83
2023/09/10 12:04:46;;;;;;;14.18;6.18;;;26.80;99.90;;;;;;5046325;28;20481;-83
2023/09/10 12:07:12;;;;;;;15.88;6.22;;;26.80;99.90;;;;;;5050005;28;20036;-86
2023/09/10 12:09:38;;;;;;;11.75;5.32;;;26.90;99.90;;;;;;5046856;28;20024;-85
2023/09/10 12:12:15;;;;;;;9.98;5.82;;;27.10;99.90;;;;;;5044025;28;20474;-82
2023/09/10 12:14:41;;;;;;;21.65;5.68;;;27.20;99.90;;;;;;5048496;28;20074;-85
2023/09/10 12:17:07;;;;;;;21.95;5.53;;;27.10;99.90;;;;;;5046158;28;20029;-84
2023/09/10 12:19:37;;;;;;;10.23;5.55;;;27.10;99.90;;;;;;5060496;28;20025;-85
2023/09/10 12:22:04;;;;;;;20.50;6.15;;;27.00;99.90;;;;;;5051494;28;20040;-83
2023/09/10 12:24:30;;;;;;;15.45;5.50;;;26.90;99.90;;;;;;5051363;28;20394;-83
2023/09/10 12:26:56;;;;;;;10.18;5.40;;;26.90;99.90;;;;;;5057417;28;20036;-84
2023/09/10 12:29:22;;;;;;;10.43;5.20;;;26.90;99.90;;;;;;5052849;28;20024;-84
2023/09/10 12:31:52;;;;;;;9.00;5.45;;;26.80;99.90;;;;;;5048593;28;20037;-83
2023/09/10 12:34:19;;;;;;;9.05;4.95;;;26.80;99.90;;;;;;5046308;28;20445;-84
2023/09/10 12:36:46;;;;;;;12.48;5.15;;;26.80;99.90;;;;;;5045031;28;20471;-84
2023/09/10 12:39:22;;;;;;;20.13;5.43;;;26.80;99.90;;;;;;5063333;28;20071;-86
2023/09/10 12:42:01;;;;;;;15.05;6.35;;;26.80;99.90;;;;;;5062786;28;20041;-86
2023/09/10 12:44:28;;;;;;;14.10;6.30;;;26.90;99.90;;;;;;5042766;28;20029;-83
2023/09/10 12:46:54;;;;;;;20.63;5.55;;;27.10;99.90;;;;;;5046385;28;20032;-85
2023/09/10 12:49:21;;;;;;;20.10;5.65;;;27.30;99.90;;;;;;5040893;28;20032;-83